sensor_id;sensor_type;location;lat;lon;timestamp;temperature;humidity
9802;DHT22;4940;50.900;4.672;2022-08-30T00:02:01;19.60;96.70
9802;DHT22;4940;50.900;4.672;2022-08-30T00:04:28;19.40;96.60
9802;DHT22;4940;50.900;4.672;2022-08-30T00:06:56;19.40;97.20
9802;DHT22;4940;50.900;4.672;2022-08-30T00:09:23;19.30;97.00
9802;DHT22;4940;50.900;4.672;2022-08-30T00:11:50;19.30;97.10
9802;DHT22;4940;50.900;4.672;2022-08-30T00:14:17;19.20;97.40
9802;DHT22;4940;50.900;4.672;2022-08-30T00:16:45;19.20;97.60
9802;DHT22;4940;50.900;4.672;2022-08-30T00:19:12;19.20;97.80
9802;DHT22;4940;50.900;4.672;2022-08-30T00:21:41;19.10;97.90
9802;DHT22;4940;50.900;4.672;2022-08-30T00:24:09;19.10;98.10
9802;DHT22;4940;50.900;4.672;2022-08-30T00:26:36;19.10;98.20
9802;DHT22;4940;50.900;4.672;2022-08-30T00:29:03;19.10;98.40
9802;DHT22;4940;50.900;4.672;2022-08-30T00:31:31;19.10;98.70
9802;DHT22;4940;50.900;4.672;2022-08-30T00:33:58;19.00;98.80
9802;DHT22;4940;50.900;4.672;2022-08-30T00:36:26;19.10;99.00
9802;DHT22;4940;50.900;4.672;2022-08-30T00:38:55;19.10;99.00
9802;DHT22;4940;50.900;4.672;2022-08-30T00:41:22;19.10;99.50
9802;DHT22;4940;50.900;4.672;2022-08-30T00:43:49;19.00;99.60
9802;DHT22;4940;50.900;4.672;2022-08-30T00:48:45;19.20;99.50
9802;DHT22;4940;50.900;4.672;2022-08-30T00:51:16;19.20;99.90
9802;DHT22;4940;50.900;4.672;2022-08-30T00:53:47;19.20;99.90
9802;DHT22;4940;50.900;4.672;2022-08-30T00:56:16;19.10;99.80
9802;DHT22;4940;50.900;4.672;2022-08-30T00:58:48;19.20;99.90
9802;DHT22;4940;50.900;4.672;2022-08-30T01:01:16;19.20;99.90
9802;DHT22;4940;50.900;4.672;2022-08-30T01:03:44;19.10;99.90
9802;DHT22;4940;50.900;4.672;2022-08-30T01:06:13;19.20;99.90
9802;DHT22;4940;50.900;4.672;2022-08-30T01:08:41;19.10;99.90
9802;DHT22;4940;50.900;4.672;2022-08-30T01:11:09;19.10;99.90
9802;DHT22;4940;50.900;4.672;2022-08-30T01:13:38;19.00;99.90
9802;DHT22;4940;50.900;4.672;2022-08-30T01:16:07;19.00;99.90
9802;DHT22;4940;50.900;4.672;2022-08-30T01:18:35;19.00;99.90
9802;DHT22;4940;50.900;4.672;2022-08-30T01:21:09;19.00;99.90
9802;DHT22;4940;50.900;4.672;2022-08-30T01:23:42;19.00;99.90
9802;DHT22;4940;50.900;4.672;2022-08-30T01:26:10;19.00;99.90
9802;DHT22;4940;50.900;4.672;2022-08-30T01:28:39;19.00;99.90
9802;DHT22;4940;50.900;4.672;2022-08-30T01:31:07;18.90;99.90
9802;DHT22;4940;50.900;4.672;2022-08-30T01:36:06;19.10;99.90
9802;DHT22;4940;50.900;4.672;2022-08-30T01:38:41;18.90;99.90
9802;DHT22;4940;50.900;4.672;2022-08-30T01:41:11;18.90;99.90
9802;DHT22;4940;50.900;4.672;2022-08-30T01:43:39;18.80;99.90
9802;DHT22;4940;50.900;4.672;2022-08-30T01:48:36;18.80;99.90
9802;DHT22;4940;50.900;4.672;2022-08-30T01:51:04;18.70;99.90
9802;DHT22;4940;50.900;4.672;2022-08-30T01:53:32;18.80;99.90
9802;DHT22;4940;50.900;4.672;2022-08-30T01:56:00;18.80;99.90
9802;DHT22;4940;50.900;4.672;2022-08-30T01:58:28;18.90;99.90
9802;DHT22;4940;50.900;4.672;2022-08-30T02:03:22;18.70;99.90
9802;DHT22;4940;50.900;4.672;2022-08-30T02:05:51;18.70;99.90
9802;DHT22;4940;50.900;4.672;2022-08-30T02:08:18;18.60;99.90
9802;DHT22;4940;50.900;4.672;2022-08-30T02:10:46;18.80;99.90
9802;DHT22;4940;50.900;4.672;2022-08-30T02:13:14;18.60;99.90
9802;DHT22;4940;50.900;4.672;2022-08-30T02:15:41;18.40;99.90
9802;DHT22;4940;50.900;4.672;2022-08-30T02:18:09;18.40;99.90
9802;DHT22;4940;50.900;4.672;2022-08-30T02:20:37;18.40;99.90
9802;DHT22;4940;50.900;4.672;2022-08-30T02:23:04;18.40;99.90
9802;DHT22;4940;50.900;4.672;2022-08-30T02:25:31;18.30;99.90
9802;DHT22;4940;50.900;4.672;2022-08-30T02:27:59;18.20;99.90
9802;DHT22;4940;50.900;4.672;2022-08-30T02:30:28;18.20;99.90
9802;DHT22;4940;50.900;4.672;2022-08-30T02:32:55;18.20;99.90
9802;DHT22;4940;50.900;4.672;2022-08-30T02:35:22;18.10;99.90
9802;DHT22;4940;50.900;4.672;2022-08-30T02:37:50;18.10;99.90
9802;DHT22;4940;50.900;4.672;2022-08-30T02:40:17;18.10;99.90
9802;DHT22;4940;50.900;4.672;2022-08-30T02:42:44;18.00;99.90
9802;DHT22;4940;50.900;4.672;2022-08-30T02:45:12;17.90;99.90
9802;DHT22;4940;50.900;4.672;2022-08-30T02:47:41;17.90;99.90
9802;DHT22;4940;50.900;4.672;2022-08-30T02:50:09;17.90;99.90
9802;DHT22;4940;50.900;4.672;2022-08-30T02:52:37;17.80;99.90
9802;DHT22;4940;50.900;4.672;2022-08-30T02:55:05;17.80;99.90
9802;DHT22;4940;50.900;4.672;2022-08-30T02:57:32;17.80;99.90
9802;DHT22;4940;50.900;4.672;2022-08-30T03:00:00;17.70;99.90
9802;DHT22;4940;50.900;4.672;2022-08-30T03:02:27;17.70;99.90
9802;DHT22;4940;50.900;4.672;2022-08-30T03:04:56;17.70;99.90
9802;DHT22;4940;50.900;4.672;2022-08-30T03:07:24;17.70;99.90
9802;DHT22;4940;50.900;4.672;2022-08-30T03:09:51;17.60;99.90
9802;DHT22;4940;50.900;4.672;2022-08-30T03:12:18;17.60;99.90
9802;DHT22;4940;50.900;4.672;2022-08-30T03:14:46;17.60;99.90
9802;DHT22;4940;50.900;4.672;2022-08-30T03:17:14;17.60;99.90
9802;DHT22;4940;50.900;4.672;2022-08-30T03:19:42;17.50;99.90
9802;DHT22;4940;50.900;4.672;2022-08-30T03:24:39;17.40;99.90
9802;DHT22;4940;50.900;4.672;2022-08-30T03:27:06;17.40;99.90
9802;DHT22;4940;50.900;4.672;2022-08-30T03:29:34;17.40;99.90
9802;DHT22;4940;50.900;4.672;2022-08-30T03:32:02;17.40;99.90
9802;DHT22;4940;50.900;4.672;2022-08-30T03:34:29;17.40;99.90
9802;DHT22;4940;50.900;4.672;2022-08-30T03:36:57;17.40;99.90
9802;DHT22;4940;50.900;4.672;2022-08-30T03:39:27;17.30;99.90
9802;DHT22;4940;50.900;4.672;2022-08-30T03:41:54;17.20;99.90
9802;DHT22;4940;50.900;4.672;2022-08-30T03:44:22;17.40;99.90
9802;DHT22;4940;50.900;4.672;2022-08-30T03:46:49;17.20;99.90
9802;DHT22;4940;50.900;4.672;2022-08-30T03:49:17;17.40;99.90
9802;DHT22;4940;50.900;4.672;2022-08-30T03:51:45;17.40;99.90
9802;DHT22;4940;50.900;4.672;2022-08-30T03:54:13;17.40;99.90
9802;DHT22;4940;50.900;4.672;2022-08-30T03:56:42;17.40;99.90
9802;DHT22;4940;50.900;4.672;2022-08-30T03:59:09;17.30;99.90
9802;DHT22;4940;50.900;4.672;2022-08-30T04:01:36;17.40;99.90
9802;DHT22;4940;50.900;4.672;2022-08-30T04:04:04;17.40;99.90
9802;DHT22;4940;50.900;4.672;2022-08-30T04:06:31;17.40;99.90
9802;DHT22;4940;50.900;4.672;2022-08-30T04:08:58;17.40;99.90
9802;DHT22;4940;50.900;4.672;2022-08-30T04:11:25;17.50;99.90
9802;DHT22;4940;50.900;4.672;2022-08-30T04:13:54;17.40;99.90
9802;DHT22;4940;50.900;4.672;2022-08-30T04:16:22;17.40;99.90
9802;DHT22;4940;50.900;4.672;2022-08-30T04:18:49;17.40;99.90
9802;DHT22;4940;50.900;4.672;2022-08-30T04:21:17;17.40;99.90
9802;DHT22;4940;50.900;4.672;2022-08-30T04:23:44;17.40;99.90
9802;DHT22;4940;50.900;4.672;2022-08-30T04:26:12;17.30;99.90
9802;DHT22;4940;50.900;4.672;2022-08-30T04:28:40;17.30;99.90
9802;DHT22;4940;50.900;4.672;2022-08-30T04:31:09;17.30;99.90
9802;DHT22;4940;50.900;4.672;2022-08-30T04:33:38;17.30;99.90
9802;DHT22;4940;50.900;4.672;2022-08-30T04:36:07;17.30;99.90
9802;DHT22;4940;50.900;4.672;2022-08-30T04:38:35;17.30;99.90
9802;DHT22;4940;50.900;4.672;2022-08-30T04:41:08;17.30;99.90
9802;DHT22;4940;50.900;4.672;2022-08-30T04:43:36;17.20;99.90
9802;DHT22;4940;50.900;4.672;2022-08-30T04:46:04;17.20;99.90
9802;DHT22;4940;50.900;4.672;2022-08-30T04:48:34;17.20;99.90
9802;DHT22;4940;50.900;4.672;2022-08-30T04:51:02;17.10;99.90
9802;DHT22;4940;50.900;4.672;2022-08-30T04:53:30;17.10;99.90
9802;DHT22;4940;50.900;4.672;2022-08-30T04:55:58;17.10;99.90
9802;DHT22;4940;50.900;4.672;2022-08-30T04:58:25;17.10;99.90
9802;DHT22;4940;50.900;4.672;2022-08-30T05:00:53;17.10;99.90
9802;DHT22;4940;50.900;4.672;2022-08-30T05:03:20;17.10;99.90
9802;DHT22;4940;50.900;4.672;2022-08-30T05:05:49;17.10;99.90
9802;DHT22;4940;50.900;4.672;2022-08-30T05:08:18;17.10;99.90
9802;DHT22;4940;50.900;4.672;2022-08-30T05:10:47;17.10;99.90
9802;DHT22;4940;50.900;4.672;2022-08-30T05:13:17;17.00;99.90
9802;DHT22;4940;50.900;4.672;2022-08-30T05:15:45;17.00;99.90
9802;DHT22;4940;50.900;4.672;2022-08-30T05:18:12;17.00;99.90
9802;DHT22;4940;50.900;4.672;2022-08-30T05:20:41;17.00;99.90
9802;DHT22;4940;50.900;4.672;2022-08-30T05:23:10;17.00;99.90
9802;DHT22;4940;50.900;4.672;2022-08-30T05:25:38;17.00;99.90
9802;DHT22;4940;50.900;4.672;2022-08-30T05:28:06;17.00;99.90
9802;DHT22;4940;50.900;4.672;2022-08-30T05:30:35;17.10;99.90
9802;DHT22;4940;50.900;4.672;2022-08-30T05:33:02;17.00;99.90
9802;DHT22;4940;50.900;4.672;2022-08-30T05:35:30;17.10;99.90
9802;DHT22;4940;50.900;4.672;2022-08-30T05:37:57;17.10;99.90
9802;DHT22;4940;50.900;4.672;2022-08-30T05:40:26;17.10;99.90
9802;DHT22;4940;50.900;4.672;2022-08-30T05:42:53;17.20;99.90
9802;DHT22;4940;50.900;4.672;2022-08-30T05:45:20;17.20;99.90
9802;DHT22;4940;50.900;4.672;2022-08-30T05:47:48;17.30;99.90
9802;DHT22;4940;50.900;4.672;2022-08-30T05:50:15;17.30;99.90
9802;DHT22;4940;50.900;4.672;2022-08-30T05:52:43;17.40;99.90
9802;DHT22;4940;50.900;4.672;2022-08-30T05:55:11;17.50;99.90
9802;DHT22;4940;50.900;4.672;2022-08-30T05:57:40;17.60;99.90
9802;DHT22;4940;50.900;4.672;2022-08-30T06:00:11;17.50;99.90
9802;DHT22;4940;50.900;4.672;2022-08-30T06:02:39;17.80;99.90
9802;DHT22;4940;50.900;4.672;2022-08-30T06:05:07;17.90;99.90
9802;DHT22;4940;50.900;4.672;2022-08-30T06:10:03;18.20;99.90
9802;DHT22;4940;50.900;4.672;2022-08-30T06:12:31;18.30;99.90
9802;DHT22;4940;50.900;4.672;2022-08-30T06:15:00;18.30;99.90
9802;DHT22;4940;50.900;4.672;2022-08-30T06:17:27;18.50;99.90
9802;DHT22;4940;50.900;4.672;2022-08-30T06:19:54;18.60;99.90
9802;DHT22;4940;50.900;4.672;2022-08-30T06:22:22;18.60;99.90
9802;DHT22;4940;50.900;4.672;2022-08-30T06:24:49;18.60;99.90
9802;DHT22;4940;50.900;4.672;2022-08-30T06:27:16;18.60;99.90
9802;DHT22;4940;50.900;4.672;2022-08-30T06:29:44;18.60;99.90
9802;DHT22;4940;50.900;4.672;2022-08-30T06:32:13;18.60;99.90
9802;DHT22;4940;50.900;4.672;2022-08-30T06:34:41;18.70;99.90
9802;DHT22;4940;50.900;4.672;2022-08-30T06:37:08;18.70;99.90
9802;DHT22;4940;50.900;4.672;2022-08-30T06:39:35;18.70;99.90
9802;DHT22;4940;50.900;4.672;2022-08-30T06:42:03;18.80;99.90
9802;DHT22;4940;50.900;4.672;2022-08-30T06:44:30;18.80;99.90
9802;DHT22;4940;50.900;4.672;2022-08-30T06:46:57;18.70;99.90
9802;DHT22;4940;50.900;4.672;2022-08-30T06:49:26;18.90;99.90
9802;DHT22;4940;50.900;4.672;2022-08-30T06:51:53;18.90;99.90
9802;DHT22;4940;50.900;4.672;2022-08-30T06:54:21;19.00;99.90
9802;DHT22;4940;50.900;4.672;2022-08-30T06:56:48;19.10;99.90
9802;DHT22;4940;50.900;4.672;2022-08-30T06:59:15;19.30;99.90
9802;DHT22;4940;50.900;4.672;2022-08-30T07:01:44;19.20;99.90
9802;DHT22;4940;50.900;4.672;2022-08-30T07:04:11;19.40;99.90
9802;DHT22;4940;50.900;4.672;2022-08-30T07:06:40;19.40;99.90
9802;DHT22;4940;50.900;4.672;2022-08-30T07:09:07;19.30;99.90
9802;DHT22;4940;50.900;4.672;2022-08-30T07:11:36;19.50;99.90
9802;DHT22;4940;50.900;4.672;2022-08-30T07:14:04;19.60;99.90
9802;DHT22;4940;50.900;4.672;2022-08-30T07:16:32;19.60;99.90
9802;DHT22;4940;50.900;4.672;2022-08-30T07:18:59;19.60;99.90
9802;DHT22;4940;50.900;4.672;2022-08-30T07:21:28;19.60;99.90
9802;DHT22;4940;50.900;4.672;2022-08-30T07:23:59;18.60;99.90
9802;DHT22;4940;50.900;4.672;2022-08-30T07:26:30;19.80;99.90
9802;DHT22;4940;50.900;4.672;2022-08-30T07:28:58;19.90;99.90
9802;DHT22;4940;50.900;4.672;2022-08-30T07:31:27;19.90;99.90
9802;DHT22;4940;50.900;4.672;2022-08-30T07:33:54;20.80;99.90
9802;DHT22;4940;50.900;4.672;2022-08-30T07:36:22;20.20;99.90
9802;DHT22;4940;50.900;4.672;2022-08-30T07:38:49;20.10;99.90
9802;DHT22;4940;50.900;4.672;2022-08-30T07:41:21;20.40;99.90
9802;DHT22;4940;50.900;4.672;2022-08-30T07:43:49;20.60;99.90
9802;DHT22;4940;50.900;4.672;2022-08-30T07:46:17;20.90;99.90
9802;DHT22;4940;50.900;4.672;2022-08-30T07:48:45;21.30;99.90
9802;DHT22;4940;50.900;4.672;2022-08-30T07:51:15;21.60;99.90
9802;DHT22;4940;50.900;4.672;2022-08-30T07:53:42;21.60;99.90
9802;DHT22;4940;50.900;4.672;2022-08-30T07:56:10;22.30;99.90
9802;DHT22;4940;50.900;4.672;2022-08-30T07:58:39;22.30;99.90
9802;DHT22;4940;50.900;4.672;2022-08-30T08:01:08;22.90;99.90
9802;DHT22;4940;50.900;4.672;2022-08-30T08:03:38;23.40;99.90
9802;DHT22;4940;50.900;4.672;2022-08-30T08:06:06;23.70;99.90
9802;DHT22;4940;50.900;4.672;2022-08-30T08:08:36;23.90;99.90
9802;DHT22;4940;50.900;4.672;2022-08-30T08:11:08;24.20;99.90
9802;DHT22;4940;50.900;4.672;2022-08-30T08:13:39;24.20;99.90
9802;DHT22;4940;50.900;4.672;2022-08-30T08:16:07;24.40;99.90
9802;DHT22;4940;50.900;4.672;2022-08-30T08:18:35;24.90;99.90
9802;DHT22;4940;50.900;4.672;2022-08-30T08:21:02;25.20;99.90
9802;DHT22;4940;50.900;4.672;2022-08-30T08:23:30;26.50;99.90
9802;DHT22;4940;50.900;4.672;2022-08-30T08:25:57;25.60;99.90
9802;DHT22;4940;50.900;4.672;2022-08-30T08:28:25;25.80;99.90
9802;DHT22;4940;50.900;4.672;2022-08-30T08:30:54;26.20;98.70
9802;DHT22;4940;50.900;4.672;2022-08-30T08:33:22;26.30;98.70
9802;DHT22;4940;50.900;4.672;2022-08-30T08:35:50;26.70;96.30
9802;DHT22;4940;50.900;4.672;2022-08-30T08:38:17;26.80;97.10
9802;DHT22;4940;50.900;4.672;2022-08-30T08:40:54;27.00;96.80
9802;DHT22;4940;50.900;4.672;2022-08-30T08:43:25;27.30;96.10
9802;DHT22;4940;50.900;4.672;2022-08-30T08:45:57;27.60;95.90
9802;DHT22;4940;50.900;4.672;2022-08-30T08:48:31;27.80;95.40
9802;DHT22;4940;50.900;4.672;2022-08-30T08:50:59;28.00;95.00
9802;DHT22;4940;50.900;4.672;2022-08-30T08:53:51;28.30;94.40
9802;DHT22;4940;50.900;4.672;2022-08-30T08:56:20;28.40;94.40
9802;DHT22;4940;50.900;4.672;2022-08-30T08:58:49;28.60;94.10
9802;DHT22;4940;50.900;4.672;2022-08-30T09:01:20;28.80;93.10
9802;DHT22;4940;50.900;4.672;2022-08-30T09:03:48;28.80;93.10
9802;DHT22;4940;50.900;4.672;2022-08-30T09:06:31;29.20;92.30
9802;DHT22;4940;50.900;4.672;2022-08-30T09:09:00;29.20;91.40
9802;DHT22;4940;50.900;4.672;2022-08-30T09:11:30;29.20;91.70
9802;DHT22;4940;50.900;4.672;2022-08-30T09:13:59;29.50;91.10
9802;DHT22;4940;50.900;4.672;2022-08-30T09:16:52;29.80;91.00
9802;DHT22;4940;50.900;4.672;2022-08-30T09:19:38;29.80;90.80
9802;DHT22;4940;50.900;4.672;2022-08-30T09:22:18;30.00;89.50
9802;DHT22;4940;50.900;4.672;2022-08-30T09:24:48;30.00;89.50
9802;DHT22;4940;50.900;4.672;2022-08-30T09:27:23;30.10;88.40
9802;DHT22;4940;50.900;4.672;2022-08-30T09:30:03;30.20;88.50
9802;DHT22;4940;50.900;4.672;2022-08-30T09:32:43;30.20;88.00
9802;DHT22;4940;50.900;4.672;2022-08-30T09:35:18;30.20;87.40
9802;DHT22;4940;50.900;4.672;2022-08-30T09:37:50;30.20;86.50
9802;DHT22;4940;50.900;4.672;2022-08-30T09:40:24;30.20;87.00
9802;DHT22;4940;50.900;4.672;2022-08-30T09:43:05;30.30;87.00
9802;DHT22;4940;50.900;4.672;2022-08-30T09:45:35;30.30;86.70
9802;DHT22;4940;50.900;4.672;2022-08-30T09:48:29;30.50;85.80
9802;DHT22;4940;50.900;4.672;2022-08-30T09:51:39;30.30;84.50
9802;DHT22;4940;50.900;4.672;2022-08-30T09:54:16;30.20;84.30
9802;DHT22;4940;50.900;4.672;2022-08-30T09:56:51;30.10;84.90
9802;DHT22;4940;50.900;4.672;2022-08-30T09:59:35;30.00;84.10
9802;DHT22;4940;50.900;4.672;2022-08-30T10:02:18;30.00;84.40
9802;DHT22;4940;50.900;4.672;2022-08-30T10:04:53;29.90;84.80
9802;DHT22;4940;50.900;4.672;2022-08-30T10:07:27;29.80;85.10
9802;DHT22;4940;50.900;4.672;2022-08-30T10:10:02;30.00;85.50
9802;DHT22;4940;50.900;4.672;2022-08-30T10:12:36;30.20;85.00
9802;DHT22;4940;50.900;4.672;2022-08-30T10:15:10;30.50;83.20
9802;DHT22;4940;50.900;4.672;2022-08-30T10:17:45;30.50;83.60
9802;DHT22;4940;50.900;4.672;2022-08-30T10:20:22;30.60;83.70
9802;DHT22;4940;50.900;4.672;2022-08-30T10:22:59;30.80;82.90
9802;DHT22;4940;50.900;4.672;2022-08-30T10:25:31;30.70;81.80
9802;DHT22;4940;50.900;4.672;2022-08-30T10:28:03;30.90;81.90
9802;DHT22;4940;50.900;4.672;2022-08-30T10:30:36;30.80;80.80
9802;DHT22;4940;50.900;4.672;2022-08-30T10:33:07;30.80;80.50
9802;DHT22;4940;50.900;4.672;2022-08-30T10:35:39;30.90;80.50
9802;DHT22;4940;50.900;4.672;2022-08-30T10:38:14;30.90;81.00
9802;DHT22;4940;50.900;4.672;2022-08-30T10:40:47;30.90;81.30
9802;DHT22;4940;50.900;4.672;2022-08-30T10:43:42;31.00;80.50
9802;DHT22;4940;50.900;4.672;2022-08-30T10:46:17;31.10;80.10
9802;DHT22;4940;50.900;4.672;2022-08-30T10:48:47;31.10;79.10
9802;DHT22;4940;50.900;4.672;2022-08-30T10:51:25;31.00;78.70
9802;DHT22;4940;50.900;4.672;2022-08-30T10:54:00;31.10;78.10
9802;DHT22;4940;50.900;4.672;2022-08-30T10:56:30;31.20;78.10
9802;DHT22;4940;50.900;4.672;2022-08-30T11:01:35;31.40;77.20
9802;DHT22;4940;50.900;4.672;2022-08-30T11:07:22;31.60;75.90
9802;DHT22;4940;50.900;4.672;2022-08-30T11:10:13;31.50;76.50
9802;DHT22;4940;50.900;4.672;2022-08-30T11:12:53;31.60;75.40
9802;DHT22;4940;50.900;4.672;2022-08-30T11:15:23;31.50;76.50
9802;DHT22;4940;50.900;4.672;2022-08-30T11:17:56;31.50;75.30
9802;DHT22;4940;50.900;4.672;2022-08-30T11:20:32;31.30;75.90
9802;DHT22;4940;50.900;4.672;2022-08-30T11:23:27;31.30;76.10
9802;DHT22;4940;50.900;4.672;2022-08-30T11:25:57;31.30;76.50
9802;DHT22;4940;50.900;4.672;2022-08-30T11:29:00;31.30;76.20
9802;DHT22;4940;50.900;4.672;2022-08-30T11:31:41;31.30;76.00
9802;DHT22;4940;50.900;4.672;2022-08-30T11:34:09;31.40;75.80
9802;DHT22;4940;50.900;4.672;2022-08-30T11:37:01;31.20;76.10
9802;DHT22;4940;50.900;4.672;2022-08-30T11:40:01;31.30;75.60
9802;DHT22;4940;50.900;4.672;2022-08-30T11:42:34;31.40;75.80
9802;DHT22;4940;50.900;4.672;2022-08-30T11:48:07;31.50;73.30
9802;DHT22;4940;50.900;4.672;2022-08-30T11:50:59;31.30;73.20
9802;DHT22;4940;50.900;4.672;2022-08-30T11:53:33;31.30;72.70
9802;DHT22;4940;50.900;4.672;2022-08-30T11:56:07;31.10;72.90
9802;DHT22;4940;50.900;4.672;2022-08-30T11:58:46;31.10;73.30
9802;DHT22;4940;50.900;4.672;2022-08-30T12:01:32;31.70;74.50
9802;DHT22;4940;50.900;4.672;2022-08-30T12:04:04;30.80;74.20
9802;DHT22;4940;50.900;4.672;2022-08-30T12:06:52;30.70;74.70
9802;DHT22;4940;50.900;4.672;2022-08-30T12:15:55;30.70;74.60
9802;DHT22;4940;50.900;4.672;2022-08-30T12:18:31;30.50;74.00
9802;DHT22;4940;50.900;4.672;2022-08-30T12:21:12;30.40;74.80
9802;DHT22;4940;50.900;4.672;2022-08-30T12:23:48;30.30;75.80
9802;DHT22;4940;50.900;4.672;2022-08-30T12:26:27;30.20;77.30
9802;DHT22;4940;50.900;4.672;2022-08-30T12:29:11;30.20;77.50
9802;DHT22;4940;50.900;4.672;2022-08-30T12:31:42;30.20;78.00
9802;DHT22;4940;50.900;4.672;2022-08-30T12:34:18;30.20;77.80
9802;DHT22;4940;50.900;4.672;2022-08-30T12:36:53;30.20;77.80
9802;DHT22;4940;50.900;4.672;2022-08-30T12:39:24;30.10;77.70
9802;DHT22;4940;50.900;4.672;2022-08-30T12:41:51;30.00;77.90
9802;DHT22;4940;50.900;4.672;2022-08-30T12:44:21;30.00;78.60
9802;DHT22;4940;50.900;4.672;2022-08-30T12:46:52;30.10;78.60
9802;DHT22;4940;50.900;4.672;2022-08-30T12:49:23;30.20;78.70
9802;DHT22;4940;50.900;4.672;2022-08-30T12:51:52;30.30;78.40
9802;DHT22;4940;50.900;4.672;2022-08-30T12:54:21;30.30;77.80
9802;DHT22;4940;50.900;4.672;2022-08-30T12:56:55;30.30;77.80
9802;DHT22;4940;50.900;4.672;2022-08-30T12:59:40;30.30;77.70
9802;DHT22;4940;50.900;4.672;2022-08-30T13:02:17;30.10;77.30
9802;DHT22;4940;50.900;4.672;2022-08-30T13:04:45;30.00;76.30
9802;DHT22;4940;50.900;4.672;2022-08-30T13:07:29;30.00;77.10
9802;DHT22;4940;50.900;4.672;2022-08-30T13:10:13;29.80;77.00
9802;DHT22;4940;50.900;4.672;2022-08-30T13:12:58;29.70;77.00
9802;DHT22;4940;50.900;4.672;2022-08-30T13:15:28;29.60;76.80
9802;DHT22;4940;50.900;4.672;2022-08-30T13:18:24;29.50;77.40
9802;DHT22;4940;50.900;4.672;2022-08-30T13:21:21;29.30;77.10
9802;DHT22;4940;50.900;4.672;2022-08-30T13:23:49;29.10;77.70
9802;DHT22;4940;50.900;4.672;2022-08-30T13:26:18;29.00;78.30
9802;DHT22;4940;50.900;4.672;2022-08-30T13:28:48;29.00;78.50
9802;DHT22;4940;50.900;4.672;2022-08-30T13:31:16;29.20;78.10
9802;DHT22;4940;50.900;4.672;2022-08-30T13:33:45;29.10;79.60
9802;DHT22;4940;50.900;4.672;2022-08-30T13:36:12;29.20;79.90
9802;DHT22;4940;50.900;4.672;2022-08-30T13:38:42;29.30;79.20
9802;DHT22;4940;50.900;4.672;2022-08-30T13:41:10;29.30;77.90
9802;DHT22;4940;50.900;4.672;2022-08-30T13:43:37;29.40;78.10
9802;DHT22;4940;50.900;4.672;2022-08-30T13:46:05;29.40;78.30
9802;DHT22;4940;50.900;4.672;2022-08-30T13:48:33;29.40;79.10
9802;DHT22;4940;50.900;4.672;2022-08-30T13:51:03;29.30;78.70
9802;DHT22;4940;50.900;4.672;2022-08-30T13:53:30;29.50;78.20
9802;DHT22;4940;50.900;4.672;2022-08-30T13:55:58;29.30;78.50
9802;DHT22;4940;50.900;4.672;2022-08-30T13:58:26;29.20;78.80
9802;DHT22;4940;50.900;4.672;2022-08-30T14:00:53;29.20;78.80
9802;DHT22;4940;50.900;4.672;2022-08-30T14:03:21;29.20;79.90
9802;DHT22;4940;50.900;4.672;2022-08-30T14:05:49;29.20;80.00
9802;DHT22;4940;50.900;4.672;2022-08-30T14:08:19;29.20;79.10
9802;DHT22;4940;50.900;4.672;2022-08-30T14:10:48;29.20;79.00
9802;DHT22;4940;50.900;4.672;2022-08-30T14:13:15;29.00;80.10
9802;DHT22;4940;50.900;4.672;2022-08-30T14:15:42;29.00;79.60
9802;DHT22;4940;50.900;4.672;2022-08-30T14:18:10;29.00;79.40
9802;DHT22;4940;50.900;4.672;2022-08-30T14:20:38;29.00;79.40
9802;DHT22;4940;50.900;4.672;2022-08-30T14:23:05;28.80;79.30
9802;DHT22;4940;50.900;4.672;2022-08-30T14:28:18;28.80;78.90
9802;DHT22;4940;50.900;4.672;2022-08-30T14:30:46;28.80;79.90
9802;DHT22;4940;50.900;4.672;2022-08-30T14:33:14;28.70;80.30
9802;DHT22;4940;50.900;4.672;2022-08-30T14:35:42;28.70;80.00
9802;DHT22;4940;50.900;4.672;2022-08-30T14:38:09;28.60;80.20
9802;DHT22;4940;50.900;4.672;2022-08-30T14:40:37;28.70;79.50
9802;DHT22;4940;50.900;4.672;2022-08-30T14:43:05;28.70;80.10
9802;DHT22;4940;50.900;4.672;2022-08-30T14:45:32;28.80;79.80
9802;DHT22;4940;50.900;4.672;2022-08-30T14:47:59;28.80;79.50
9802;DHT22;4940;50.900;4.672;2022-08-30T14:50:31;28.80;79.80
9802;DHT22;4940;50.900;4.672;2022-08-30T14:52:58;28.60;79.70
9802;DHT22;4940;50.900;4.672;2022-08-30T14:55:25;28.70;78.60
9802;DHT22;4940;50.900;4.672;2022-08-30T14:57:56;28.60;79.20
9802;DHT22;4940;50.900;4.672;2022-08-30T15:00:23;28.60;79.40
9802;DHT22;4940;50.900;4.672;2022-08-30T15:02:51;28.60;79.40
9802;DHT22;4940;50.900;4.672;2022-08-30T15:05:18;28.50;79.50
9802;DHT22;4940;50.900;4.672;2022-08-30T15:07:48;28.40;79.20
9802;DHT22;4940;50.900;4.672;2022-08-30T15:10:17;28.40;79.80
9802;DHT22;4940;50.900;4.672;2022-08-30T15:12:46;28.40;79.90
9802;DHT22;4940;50.900;4.672;2022-08-30T15:15:17;28.40;79.90
9802;DHT22;4940;50.900;4.672;2022-08-30T15:17:45;28.30;79.90
9802;DHT22;4940;50.900;4.672;2022-08-30T15:20:13;28.30;80.10
9802;DHT22;4940;50.900;4.672;2022-08-30T15:22:43;28.40;80.30
9802;DHT22;4940;50.900;4.672;2022-08-30T15:25:11;28.20;80.20
9802;DHT22;4940;50.900;4.672;2022-08-30T15:27:38;28.30;80.20
9802;DHT22;4940;50.900;4.672;2022-08-30T15:30:06;28.20;80.20
9802;DHT22;4940;50.900;4.672;2022-08-30T15:32:35;28.10;80.20
9802;DHT22;4940;50.900;4.672;2022-08-30T15:35:02;28.10;80.00
9802;DHT22;4940;50.900;4.672;2022-08-30T15:37:30;28.10;80.00
9802;DHT22;4940;50.900;4.672;2022-08-30T15:39:57;28.10;79.90
9802;DHT22;4940;50.900;4.672;2022-08-30T15:42:25;28.00;79.70
9802;DHT22;4940;50.900;4.672;2022-08-30T15:44:53;28.00;80.00
9802;DHT22;4940;50.900;4.672;2022-08-30T15:47:21;28.00;80.00
9802;DHT22;4940;50.900;4.672;2022-08-30T15:49:55;27.90;80.10
9802;DHT22;4940;50.900;4.672;2022-08-30T15:52:23;27.90;80.20
9802;DHT22;4940;50.900;4.672;2022-08-30T15:54:50;27.90;80.50
9802;DHT22;4940;50.900;4.672;2022-08-30T15:57:18;27.80;80.30
9802;DHT22;4940;50.900;4.672;2022-08-30T15:59:45;27.80;80.20
9802;DHT22;4940;50.900;4.672;2022-08-30T16:02:12;27.90;80.30
9802;DHT22;4940;50.900;4.672;2022-08-30T16:04:40;27.80;80.40
9802;DHT22;4940;50.900;4.672;2022-08-30T16:07:09;27.80;80.30
9802;DHT22;4940;50.900;4.672;2022-08-30T16:09:36;27.80;79.50
9802;DHT22;4940;50.900;4.672;2022-08-30T16:12:04;27.80;80.30
9802;DHT22;4940;50.900;4.672;2022-08-30T16:14:32;27.80;80.20
9802;DHT22;4940;50.900;4.672;2022-08-30T16:16:59;27.80;80.20
9802;DHT22;4940;50.900;4.672;2022-08-30T16:19:26;27.80;80.30
9802;DHT22;4940;50.900;4.672;2022-08-30T16:21:54;27.70;80.30
9802;DHT22;4940;50.900;4.672;2022-08-30T16:24:23;27.70;80.40
9802;DHT22;4940;50.900;4.672;2022-08-30T16:26:51;27.70;79.90
9802;DHT22;4940;50.900;4.672;2022-08-30T16:29:18;27.70;80.50
9802;DHT22;4940;50.900;4.672;2022-08-30T16:31:46;27.70;80.50
9802;DHT22;4940;50.900;4.672;2022-08-30T16:34:15;27.50;80.40
9802;DHT22;4940;50.900;4.672;2022-08-30T16:36:43;27.50;80.60
9802;DHT22;4940;50.900;4.672;2022-08-30T16:39:10;27.50;80.60
9802;DHT22;4940;50.900;4.672;2022-08-30T16:41:40;27.40;80.90
9802;DHT22;4940;50.900;4.672;2022-08-30T16:44:07;27.30;80.90
9802;DHT22;4940;50.900;4.672;2022-08-30T16:46:35;27.30;81.20
9802;DHT22;4940;50.900;4.672;2022-08-30T16:49:03;27.20;81.20
9802;DHT22;4940;50.900;4.672;2022-08-30T16:51:32;27.20;81.20
9802;DHT22;4940;50.900;4.672;2022-08-30T16:54:02;27.10;81.20
9802;DHT22;4940;50.900;4.672;2022-08-30T16:56:31;27.00;81.20